sensor_id;sensor_type;location;lat;lon;timestamp;P1;durP1;ratioP1;P2;durP2;ratioP2
13067;SDS011;6600;51.362;6.686;2024-02-04T00:01:42;3.00;;;2.73;;
13067;SDS011;6600;51.362;6.686;2024-02-04T00:04:07;3.60;;;2.43;;
13067;SDS011;6600;51.362;6.686;2024-02-04T00:06:33;2.30;;;1.90;;
13067;SDS011;6600;51.362;6.686;2024-02-04T00:08:58;2.20;;;2.00;;
13067;SDS011;6600;51.362;6.686;2024-02-04T00:11:24;2.10;;;1.80;;
13067;SDS011;6600;51.362;6.686;2024-02-04T00:13:49;2.50;;;2.30;;
13067;SDS011;6600;51.362;6.686;2024-02-04T00:16:14;2.00;;;1.80;;
13067;SDS011;6600;51.362;6.686;2024-02-04T00:18:40;2.77;;;1.80;;
13067;SDS011;6600;51.362;6.686;2024-02-04T00:21:05;2.27;;;1.80;;
13067;SDS011;6600;51.362;6.686;2024-02-04T00:23:30;1.80;;;1.70;;
13067;SDS011;6600;51.362;6.686;2024-02-04T00:25:56;2.37;;;2.17;;
13067;SDS011;6600;51.362;6.686;2024-02-04T00:28:22;2.10;;;1.90;;
13067;SDS011;6600;51.362;6.686;2024-02-04T00:30:47;4.67;;;2.37;;
13067;SDS011;6600;51.362;6.686;2024-02-04T00:33:14;2.50;;;2.30;;
13067;SDS011;6600;51.362;6.686;2024-02-04T00:35:40;5.03;;;3.43;;
13067;SDS011;6600;51.362;6.686;2024-02-04T00:38:05;3.90;;;3.00;;
13067;SDS011;6600;51.362;6.686;2024-02-04T00:40:31;6.07;;;3.60;;
13067;SDS011;6600;51.362;6.686;2024-02-04T00:42:56;7.87;;;4.43;;
13067;SDS011;6600;51.362;6.686;2024-02-04T00:45:22;5.33;;;4.47;;
13067;SDS011;6600;51.362;6.686;2024-02-04T00:47:47;4.70;;;4.10;;
13067;SDS011;6600;51.362;6.686;2024-02-04T00:50:12;7.67;;;4.33;;
13067;SDS011;6600;51.362;6.686;2024-02-04T00:52:38;6.23;;;4.47;;
13067;SDS011;6600;51.362;6.686;2024-02-04T00:55:03;6.77;;;5.00;;
13067;SDS011;6600;51.362;6.686;2024-02-04T00:57:29;7.67;;;5.50;;
13067;SDS011;6600;51.362;6.686;2024-02-04T00:59:54;6.73;;;4.63;;
13067;SDS011;6600;51.362;6.686;2024-02-04T01:02:19;6.70;;;4.70;;
13067;SDS011;6600;51.362;6.686;2024-02-04T01:04:45;6.63;;;5.20;;
13067;SDS011;6600;51.362;6.686;2024-02-04T01:07:10;6.83;;;4.93;;
13067;SDS011;6600;51.362;6.686;2024-02-04T01:09:35;6.97;;;5.40;;
13067;SDS011;6600;51.362;6.686;2024-02-04T01:12:01;9.37;;;6.03;;
13067;SDS011;6600;51.362;6.686;2024-02-04T01:14:26;7.60;;;5.83;;
13067;SDS011;6600;51.362;6.686;2024-02-04T01:16:51;7.60;;;5.20;;
13067;SDS011;6600;51.362;6.686;2024-02-04T01:19:17;7.23;;;5.67;;
13067;SDS011;6600;51.362;6.686;2024-02-04T01:21:42;7.70;;;6.00;;
13067;SDS011;6600;51.362;6.686;2024-02-04T01:24:09;8.43;;;5.97;;
13067;SDS011;6600;51.362;6.686;2024-02-04T01:26:34;7.60;;;6.07;;
13067;SDS011;6600;51.362;6.686;2024-02-04T01:28:59;9.17;;;5.70;;
13067;SDS011;6600;51.362;6.686;2024-02-04T01:31:26;9.50;;;6.33;;
13067;SDS011;6600;51.362;6.686;2024-02-04T01:33:51;7.13;;;5.40;;
13067;SDS011;6600;51.362;6.686;2024-02-04T01:36:17;10.47;;;6.00;;
13067;SDS011;6600;51.362;6.686;2024-02-04T01:38:42;6.67;;;5.50;;
13067;SDS011;6600;51.362;6.686;2024-02-04T01:41:07;8.20;;;5.80;;
13067;SDS011;6600;51.362;6.686;2024-02-04T01:43:33;8.53;;;5.90;;
13067;SDS011;6600;51.362;6.686;2024-02-04T01:45:58;7.53;;;5.30;;
13067;SDS011;6600;51.362;6.686;2024-02-04T01:48:24;8.13;;;5.17;;
13067;SDS011;6600;51.362;6.686;2024-02-04T01:50:50;5.60;;;4.57;;
13067;SDS011;6600;51.362;6.686;2024-02-04T01:53:20;7.23;;;5.37;;
13067;SDS011;6600;51.362;6.686;2024-02-04T01:55:51;5.43;;;4.60;;
13067;SDS011;6600;51.362;6.686;2024-02-04T01:58:16;5.93;;;4.77;;
13067;SDS011;6600;51.362;6.686;2024-02-04T02:00:42;6.50;;;5.20;;
13067;SDS011;6600;51.362;6.686;2024-02-04T02:03:08;6.20;;;4.53;;
13067;SDS011;6600;51.362;6.686;2024-02-04T02:05:37;5.37;;;3.97;;
13067;SDS011;6600;51.362;6.686;2024-02-04T02:08:03;9.47;;;4.33;;
13067;SDS011;6600;51.362;6.686;2024-02-04T02:10:28;5.87;;;4.20;;
13067;SDS011;6600;51.362;6.686;2024-02-04T02:13:04;6.10;;;4.83;;
13067;SDS011;6600;51.362;6.686;2024-02-04T02:15:36;5.57;;;4.63;;
13067;SDS011;6600;51.362;6.686;2024-02-04T02:18:23;6.37;;;4.90;;
13067;SDS011;6600;51.362;6.686;2024-02-04T02:23:53;7.00;;;5.47;;
13067;SDS011;6600;51.362;6.686;2024-02-04T02:26:41;10.07;;;6.13;;
13067;SDS011;6600;51.362;6.686;2024-02-04T02:29:06;7.23;;;5.83;;
13067;SDS011;6600;51.362;6.686;2024-02-04T02:31:34;8.43;;;6.43;;
13067;SDS011;6600;51.362;6.686;2024-02-04T02:34:00;10.10;;;6.37;;
13067;SDS011;6600;51.362;6.686;2024-02-04T02:36:26;9.17;;;7.40;;
13067;SDS011;6600;51.362;6.686;2024-02-04T02:41:41;9.93;;;6.53;;
13067;SDS011;6600;51.362;6.686;2024-02-04T02:44:09;12.53;;;7.67;;
13067;SDS011;6600;51.362;6.686;2024-02-04T02:46:35;10.07;;;6.93;;
13067;SDS011;6600;51.362;6.686;2024-02-04T02:49:02;9.40;;;7.67;;
13067;SDS011;6600;51.362;6.686;2024-02-04T02:51:28;12.70;;;8.40;;
13067;SDS011;6600;51.362;6.686;2024-02-04T02:53:53;10.97;;;7.50;;
13067;SDS011;6600;51.362;6.686;2024-02-04T02:56:18;11.60;;;7.90;;
13067;SDS011;6600;51.362;6.686;2024-02-04T02:58:43;10.43;;;7.47;;
13067;SDS011;6600;51.362;6.686;2024-02-04T03:01:09;10.23;;;7.53;;
13067;SDS011;6600;51.362;6.686;2024-02-04T03:03:34;9.33;;;6.83;;
13067;SDS011;6600;51.362;6.686;2024-02-04T03:05:59;9.73;;;7.40;;
13067;SDS011;6600;51.362;6.686;2024-02-04T03:08:25;8.77;;;6.60;;
13067;SDS011;6600;51.362;6.686;2024-02-04T03:10:50;9.30;;;6.60;;
13067;SDS011;6600;51.362;6.686;2024-02-04T03:13:16;9.60;;;6.47;;
13067;SDS011;6600;51.362;6.686;2024-02-04T03:15:41;7.90;;;6.03;;
13067;SDS011;6600;51.362;6.686;2024-02-04T03:18:07;10.50;;;6.50;;
13067;SDS011;6600;51.362;6.686;2024-02-04T03:20:33;8.40;;;6.40;;
13067;SDS011;6600;51.362;6.686;2024-02-04T03:22:58;10.13;;;6.93;;
13067;SDS011;6600;51.362;6.686;2024-02-04T03:25:23;9.33;;;6.70;;
13067;SDS011;6600;51.362;6.686;2024-02-04T03:27:51;9.30;;;6.60;;
13067;SDS011;6600;51.362;6.686;2024-02-04T03:30:17;9.53;;;7.07;;
13067;SDS011;6600;51.362;6.686;2024-02-04T03:32:43;9.13;;;6.27;;
13067;SDS011;6600;51.362;6.686;2024-02-04T03:35:08;8.07;;;6.17;;
13067;SDS011;6600;51.362;6.686;2024-02-04T03:37:33;7.57;;;5.97;;
13067;SDS011;6600;51.362;6.686;2024-02-04T03:39:59;8.23;;;5.70;;
13067;SDS011;6600;51.362;6.686;2024-02-04T03:42:24;7.97;;;6.13;;
13067;SDS011;6600;51.362;6.686;2024-02-04T03:44:49;6.97;;;5.50;;
13067;SDS011;6600;51.362;6.686;2024-02-04T03:47:15;7.20;;;5.33;;
13067;SDS011;6600;51.362;6.686;2024-02-04T03:49:40;7.57;;;5.60;;
13067;SDS011;6600;51.362;6.686;2024-02-04T03:52:06;6.97;;;5.40;;
13067;SDS011;6600;51.362;6.686;2024-02-04T03:54:31;9.23;;;6.17;;
13067;SDS011;6600;51.362;6.686;2024-02-04T03:56:56;10.37;;;7.47;;
13067;SDS011;6600;51.362;6.686;2024-02-04T03:59:21;12.40;;;8.40;;
13067;SDS011;6600;51.362;6.686;2024-02-04T04:01:50;12.07;;;8.40;;
13067;SDS011;6600;51.362;6.686;2024-02-04T04:04:18;16.63;;;9.33;;
13067;SDS011;6600;51.362;6.686;2024-02-04T04:06:44;15.47;;;9.57;;
13067;SDS011;6600;51.362;6.686;2024-02-04T04:09:10;15.03;;;9.63;;
13067;SDS011;6600;51.362;6.686;2024-02-04T04:11:35;21.20;;;10.60;;
13067;SDS011;6600;51.362;6.686;2024-02-04T04:14:01;17.07;;;11.40;;
13067;SDS011;6600;51.362;6.686;2024-02-04T04:16:26;16.90;;;10.73;;
13067;SDS011;6600;51.362;6.686;2024-02-04T04:18:52;19.07;;;12.93;;
13067;SDS011;6600;51.362;6.686;2024-02-04T04:21:17;20.20;;;12.83;;
13067;SDS011;6600;51.362;6.686;2024-02-04T04:23:43;19.47;;;12.17;;
13067;SDS011;6600;51.362;6.686;2024-02-04T04:26:08;20.63;;;12.77;;
13067;SDS011;6600;51.362;6.686;2024-02-04T04:28:33;20.23;;;12.70;;
13067;SDS011;6600;51.362;6.686;2024-02-04T04:30:59;16.53;;;11.60;;
13067;SDS011;6600;51.362;6.686;2024-02-04T04:33:24;19.10;;;11.77;;
13067;SDS011;6600;51.362;6.686;2024-02-04T04:35:49;19.00;;;12.07;;
13067;SDS011;6600;51.362;6.686;2024-02-04T04:38:15;18.53;;;12.17;;
13067;SDS011;6600;51.362;6.686;2024-02-04T04:40:40;16.30;;;10.93;;
13067;SDS011;6600;51.362;6.686;2024-02-04T04:43:05;19.90;;;11.63;;
13067;SDS011;6600;51.362;6.686;2024-02-04T04:45:31;19.03;;;11.83;;
13067;SDS011;6600;51.362;6.686;2024-02-04T04:47:56;19.27;;;11.93;;
13067;SDS011;6600;51.362;6.686;2024-02-04T04:50:22;18.13;;;12.53;;
13067;SDS011;6600;51.362;6.686;2024-02-04T04:52:48;17.33;;;11.80;;
13067;SDS011;6600;51.362;6.686;2024-02-04T04:55:13;19.17;;;12.53;;
13067;SDS011;6600;51.362;6.686;2024-02-04T04:57:38;19.23;;;12.80;;
13067;SDS011;6600;51.362;6.686;2024-02-04T05:00:04;18.77;;;12.70;;
13067;SDS011;6600;51.362;6.686;2024-02-04T05:02:32;19.63;;;12.93;;
13067;SDS011;6600;51.362;6.686;2024-02-04T05:04:57;23.07;;;14.53;;
13067;SDS011;6600;51.362;6.686;2024-02-04T05:07:23;21.43;;;14.37;;
13067;SDS011;6600;51.362;6.686;2024-02-04T05:09:48;22.57;;;13.33;;
13067;SDS011;6600;51.362;6.686;2024-02-04T05:12:13;22.17;;;14.47;;
13067;SDS011;6600;51.362;6.686;2024-02-04T05:14:39;22.83;;;14.27;;
13067;SDS011;6600;51.362;6.686;2024-02-04T05:17:04;22.30;;;13.17;;
13067;SDS011;6600;51.362;6.686;2024-02-04T05:19:30;22.63;;;14.40;;
13067;SDS011;6600;51.362;6.686;2024-02-04T05:21:56;22.23;;;13.87;;
13067;SDS011;6600;51.362;6.686;2024-02-04T05:24:21;23.27;;;13.63;;
13067;SDS011;6600;51.362;6.686;2024-02-04T05:26:46;21.67;;;13.73;;
13067;SDS011;6600;51.362;6.686;2024-02-04T05:29:12;22.53;;;14.17;;
13067;SDS011;6600;51.362;6.686;2024-02-04T05:31:43;20.60;;;13.53;;
13067;SDS011;6600;51.362;6.686;2024-02-04T05:34:09;22.20;;;14.10;;
13067;SDS011;6600;51.362;6.686;2024-02-04T05:36:35;22.47;;;14.23;;
13067;SDS011;6600;51.362;6.686;2024-02-04T05:39:13;21.23;;;14.07;;
13067;SDS011;6600;51.362;6.686;2024-02-04T05:41:39;24.57;;;14.10;;
13067;SDS011;6600;51.362;6.686;2024-02-04T05:44:05;25.90;;;15.50;;
13067;SDS011;6600;51.362;6.686;2024-02-04T05:46:31;24.07;;;14.77;;
13067;SDS011;6600;51.362;6.686;2024-02-04T05:48:57;26.33;;;15.77;;
13067;SDS011;6600;51.362;6.686;2024-02-04T05:51:23;23.47;;;14.37;;
13067;SDS011;6600;51.362;6.686;2024-02-04T05:53:49;29.57;;;16.50;;
13067;SDS011;6600;51.362;6.686;2024-02-04T05:56:14;24.77;;;16.23;;
13067;SDS011;6600;51.362;6.686;2024-02-04T05:58:39;28.23;;;16.20;;
13067;SDS011;6600;51.362;6.686;2024-02-04T06:01:05;25.53;;;16.30;;
13067;SDS011;6600;51.362;6.686;2024-02-04T06:03:30;28.03;;;15.80;;
13067;SDS011;6600;51.362;6.686;2024-02-04T06:05:55;24.83;;;14.83;;
13067;SDS011;6600;51.362;6.686;2024-02-04T06:08:21;23.77;;;14.50;;
13067;SDS011;6600;51.362;6.686;2024-02-04T06:10:46;25.17;;;14.40;;
13067;SDS011;6600;51.362;6.686;2024-02-04T06:13:11;25.33;;;15.13;;
13067;SDS011;6600;51.362;6.686;2024-02-04T06:15:37;25.13;;;14.10;;
13067;SDS011;6600;51.362;6.686;2024-02-04T06:18:02;27.13;;;14.43;;
13067;SDS011;6600;51.362;6.686;2024-02-04T06:20:28;23.27;;;13.63;;
13067;SDS011;6600;51.362;6.686;2024-02-04T06:22:53;24.07;;;14.43;;
13067;SDS011;6600;51.362;6.686;2024-02-04T06:25:18;25.37;;;13.73;;
13067;SDS011;6600;51.362;6.686;2024-02-04T06:27:44;22.33;;;13.60;;
13067;SDS011;6600;51.362;6.686;2024-02-04T06:30:09;26.77;;;14.93;;
13067;SDS011;6600;51.362;6.686;2024-02-04T06:32:35;26.60;;;14.17;;
13067;SDS011;6600;51.362;6.686;2024-02-04T06:35:00;24.53;;;14.63;;
13067;SDS011;6600;51.362;6.686;2024-02-04T06:37:26;27.13;;;14.07;;
13067;SDS011;6600;51.362;6.686;2024-02-04T06:39:52;21.53;;;13.13;;
13067;SDS011;6600;51.362;6.686;2024-02-04T06:42:17;24.90;;;14.30;;
13067;SDS011;6600;51.362;6.686;2024-02-04T06:44:46;22.87;;;13.00;;
13067;SDS011;6600;51.362;6.686;2024-02-04T06:47:12;24.07;;;13.23;;
13067;SDS011;6600;51.362;6.686;2024-02-04T06:49:39;20.93;;;13.23;;
13067;SDS011;6600;51.362;6.686;2024-02-04T06:52:05;23.00;;;12.83;;
13067;SDS011;6600;51.362;6.686;2024-02-04T06:54:30;21.90;;;13.17;;
13067;SDS011;6600;51.362;6.686;2024-02-04T06:56:55;18.77;;;11.40;;
13067;SDS011;6600;51.362;6.686;2024-02-04T06:59:20;21.57;;;12.43;;
13067;SDS011;6600;51.362;6.686;2024-02-04T07:01:46;20.60;;;12.13;;
13067;SDS011;6600;51.362;6.686;2024-02-04T07:04:12;18.80;;;12.37;;
13067;SDS011;6600;51.362;6.686;2024-02-04T07:06:37;20.73;;;11.97;;
13067;SDS011;6600;51.362;6.686;2024-02-04T07:09:03;20.20;;;11.10;;
13067;SDS011;6600;51.362;6.686;2024-02-04T07:11:28;21.30;;;11.17;;
13067;SDS011;6600;51.362;6.686;2024-02-04T07:13:53;19.33;;;10.63;;
13067;SDS011;6600;51.362;6.686;2024-02-04T07:16:26;16.80;;;10.60;;
13067;SDS011;6600;51.362;6.686;2024-02-04T07:18:51;17.60;;;10.37;;
13067;SDS011;6600;51.362;6.686;2024-02-04T07:21:17;17.87;;;10.13;;
13067;SDS011;6600;51.362;6.686;2024-02-04T07:23:42;17.67;;;9.90;;
13067;SDS011;6600;51.362;6.686;2024-02-04T07:26:08;17.10;;;9.57;;
13067;SDS011;6600;51.362;6.686;2024-02-04T07:28:34;16.37;;;8.80;;
13067;SDS011;6600;51.362;6.686;2024-02-04T07:30:59;15.23;;;8.83;;
13067;SDS011;6600;51.362;6.686;2024-02-04T07:33:25;12.77;;;8.40;;
13067;SDS011;6600;51.362;6.686;2024-02-04T07:35:50;15.10;;;9.43;;
13067;SDS011;6600;51.362;6.686;2024-02-04T07:38:15;17.53;;;9.03;;
13067;SDS011;6600;51.362;6.686;2024-02-04T07:40:41;15.80;;;8.73;;
13067;SDS011;6600;51.362;6.686;2024-02-04T07:43:06;13.83;;;8.13;;
13067;SDS011;6600;51.362;6.686;2024-02-04T07:45:32;13.80;;;9.03;;
13067;SDS011;6600;51.362;6.686;2024-02-04T07:47:58;14.33;;;7.93;;
13067;SDS011;6600;51.362;6.686;2024-02-04T07:50:23;15.17;;;8.80;;
13067;SDS011;6600;51.362;6.686;2024-02-04T07:52:48;12.97;;;8.10;;
13067;SDS011;6600;51.362;6.686;2024-02-04T07:55:13;11.90;;;7.07;;
13067;SDS011;6600;51.362;6.686;2024-02-04T07:57:39;14.57;;;7.00;;
13067;SDS011;6600;51.362;6.686;2024-02-04T08:00:05;10.47;;;6.83;;
13067;SDS011;6600;51.362;6.686;2024-02-04T08:02:34;9.03;;;6.37;;
13067;SDS011;6600;51.362;6.686;2024-02-04T08:04:59;9.30;;;6.67;;
13067;SDS011;6600;51.362;6.686;2024-02-04T08:07:25;9.00;;;6.07;;
13067;SDS011;6600;51.362;6.686;2024-02-04T08:09:51;8.40;;;5.53;;
13067;SDS011;6600;51.362;6.686;2024-02-04T08:12:17;10.70;;;6.17;;
13067;SDS011;6600;51.362;6.686;2024-02-04T08:14:42;9.50;;;6.13;;
13067;SDS011;6600;51.362;6.686;2024-02-04T08:17:08;9.33;;;6.33;;
13067;SDS011;6600;51.362;6.686;2024-02-04T08:19:33;11.00;;;7.20;;
13067;SDS011;6600;51.362;6.686;2024-02-04T08:21:58;11.87;;;7.03;;
13067;SDS011;6600;51.362;6.686;2024-02-04T08:24:24;10.83;;;7.23;;
13067;SDS011;6600;51.362;6.686;2024-02-04T08:26:49;10.10;;;6.33;;
13067;SDS011;6600;51.362;6.686;2024-02-04T08:29:15;11.33;;;7.80;;
13067;SDS011;6600;51.362;6.686;2024-02-04T08:31:40;14.77;;;8.10;;
13067;SDS011;6600;51.362;6.686;2024-02-04T08:34:05;8.70;;;6.83;;
13067;SDS011;6600;51.362;6.686;2024-02-04T08:36:32;9.20;;;7.03;;
13067;SDS011;6600;51.362;6.686;2024-02-04T08:38:57;9.63;;;6.07;;
13067;SDS011;6600;51.362;6.686;2024-02-04T08:41:23;9.37;;;6.57;;
13067;SDS011;6600;51.362;6.686;2024-02-04T08:43:48;11.40;;;7.00;;
13067;SDS011;6600;51.362;6.686;2024-02-04T08:46:13;10.73;;;7.13;;
13067;SDS011;6600;51.362;6.686;2024-02-04T08:48:39;10.87;;;7.13;;
13067;SDS011;6600;51.362;6.686;2024-02-04T08:51:04;11.13;;;7.53;;
13067;SDS011;6600;51.362;6.686;2024-02-04T08:53:35;14.93;;;8.03;;
13067;SDS011;6600;51.362;6.686;2024-02-04T08:56:00;11.03;;;7.27;;
13067;SDS011;6600;51.362;6.686;2024-02-04T08:58:26;11.63;;;7.83;;
13067;SDS011;6600;51.362;6.686;2024-02-04T09:00:51;12.50;;;7.90;;
13067;SDS011;6600;51.362;6.686;2024-02-04T09:03:16;9.80;;;7.23;;
13067;SDS011;6600;51.362;6.686;2024-02-04T09:05:42;11.80;;;8.23;;
13067;SDS011;6600;51.362;6.686;2024-02-04T09:08:07;12.83;;;8.20;;
13067;SDS011;6600;51.362;6.686;2024-02-04T09:10:32;10.17;;;7.10;;
13067;SDS011;6600;51.362;6.686;2024-02-04T09:12:57;11.13;;;7.13;;
13067;SDS011;6600;51.362;6.686;2024-02-04T09:15:23;11.80;;;7.93;;
13067;SDS011;6600;51.362;6.686;2024-02-04T09:17:48;11.57;;;7.27;;
13067;SDS011;6600;51.362;6.686;2024-02-04T09:20:14;12.03;;;7.33;;
13067;SDS011;6600;51.362;6.686;2024-02-04T09:22:40;10.87;;;7.33;;
13067;SDS011;6600;51.362;6.686;2024-02-04T09:25:05;8.90;;;6.63;;
13067;SDS011;6600;51.362;6.686;2024-02-04T09:27:31;9.13;;;6.27;;
13067;SDS011;6600;51.362;6.686;2024-02-04T09:29:56;7.43;;;5.67;;
13067;SDS011;6600;51.362;6.686;2024-02-04T09:32:23;8.57;;;5.30;;
13067;SDS011;6600;51.362;6.686;2024-02-04T09:34:49;10.57;;;6.30;;
13067;SDS011;6600;51.362;6.686;2024-02-04T09:37:14;7.40;;;5.47;;
13067;SDS011;6600;51.362;6.686;2024-02-04T09:39:39;8.90;;;6.10;;
13067;SDS011;6600;51.362;6.686;2024-02-04T09:42:05;7.83;;;5.90;;
13067;SDS011;6600;51.362;6.686;2024-02-04T09:44:30;10.13;;;5.57;;
13067;SDS011;6600;51.362;6.686;2024-02-04T09:46:57;8.13;;;5.30;;
13067;SDS011;6600;51.362;6.686;2024-02-04T09:49:24;10.57;;;6.23;;
13067;SDS011;6600;51.362;6.686;2024-02-04T09:51:51;8.03;;;5.87;;
13067;SDS011;6600;51.362;6.686;2024-02-04T09:54:16;9.17;;;5.53;;
13067;SDS011;6600;51.362;6.686;2024-02-04T09:56:43;9.60;;;5.87;;
13067;SDS011;6600;51.362;6.686;2024-02-04T09:59:09;7.90;;;5.97;;
13067;SDS011;6600;51.362;6.686;2024-02-04T10:01:35;7.97;;;5.60;;
13067;SDS011;6600;51.362;6.686;2024-02-04T10:04:01;7.20;;;5.03;;
13067;SDS011;6600;51.362;6.686;2024-02-04T10:06:27;10.70;;;6.07;;
13067;SDS011;6600;51.362;6.686;2024-02-04T10:08:52;7.87;;;5.57;;
13067;SDS011;6600;51.362;6.686;2024-02-04T10:11:18;7.97;;;5.77;;
13067;SDS011;6600;51.362;6.686;2024-02-04T10:13:47;9.37;;;5.63;;
13067;SDS011;6600;51.362;6.686;2024-02-04T10:16:14;7.83;;;5.60;;
13067;SDS011;6600;51.362;6.686;2024-02-04T10:18:41;9.10;;;5.47;;
13067;SDS011;6600;51.362;6.686;2024-02-04T10:21:21;10.20;;;6.13;;
13067;SDS011;6600;51.362;6.686;2024-02-04T10:23:48;11.27;;;5.80;;
13067;SDS011;6600;51.362;6.686;2024-02-04T10:26:14;8.03;;;5.63;;
13067;SDS011;6600;51.362;6.686;2024-02-04T10:28:40;10.00;;;5.37;;
13067;SDS011;6600;51.362;6.686;2024-02-04T10:31:08;10.23;;;5.53;;
13067;SDS011;6600;51.362;6.686;2024-02-04T10:33:34;8.77;;;6.80;;
13067;SDS011;6600;51.362;6.686;2024-02-04T10:36:00;10.33;;;6.40;;
13067;SDS011;6600;51.362;6.686;2024-02-04T10:38:25;7.93;;;5.47;;
13067;SDS011;6600;51.362;6.686;2024-02-04T10:40:51;8.17;;;4.93;;
13067;SDS011;6600;51.362;6.686;2024-02-04T10:43:18;6.63;;;5.50;;
13067;SDS011;6600;51.362;6.686;2024-02-04T10:45:45;8.00;;;5.60;;
13067;SDS011;6600;51.362;6.686;2024-02-04T10:48:12;10.50;;;5.10;;
13067;SDS011;6600;51.362;6.686;2024-02-04T10:50:46;8.90;;;6.00;;
13067;SDS011;6600;51.362;6.686;2024-02-04T10:53:14;7.30;;;5.30;;
13067;SDS011;6600;51.362;6.686;2024-02-04T10:55:43;7.57;;;4.90;;
13067;SDS011;6600;51.362;6.686;2024-02-04T10:58:12;8.07;;;5.60;;
13067;SDS011;6600;51.362;6.686;2024-02-04T11:00:38;8.90;;;5.80;;
13067;SDS011;6600;51.362;6.686;2024-02-04T11:03:05;5.87;;;4.80;;
13067;SDS011;6600;51.362;6.686;2024-02-04T11:05:31;8.53;;;5.37;;
13067;SDS011;6600;51.362;6.686;2024-02-04T11:08:00;9.53;;;6.30;;
13067;SDS011;6600;51.362;6.686;2024-02-04T11:10:28;8.43;;;5.47;;
13067;SDS011;6600;51.362;6.686;2024-02-04T11:12:56;6.70;;;5.00;;
13067;SDS011;6600;51.362;6.686;2024-02-04T11:15:23;7.53;;;4.97;;
13067;SDS011;6600;51.362;6.686;2024-02-04T11:24:22;9.83;;;5.83;;
13067;SDS011;6600;51.362;6.686;2024-02-04T11:26:28;6.83;;;5.07;;
13067;SDS011;6600;51.362;6.686;2024-02-04T11:28:53;7.93;;;5.83;;
13067;SDS011;6600;51.362;6.686;2024-02-04T11:31:19;10.30;;;5.60;;
13067;SDS011;6600;51.362;6.686;2024-02-04T11:33:45;8.93;;;5.80;;
13067;SDS011;6600;51.362;6.686;2024-02-04T11:36:14;9.93;;;5.97;;
13067;SDS011;6600;51.362;6.686;2024-02-04T11:38:40;9.43;;;5.70;;
13067;SDS011;6600;51.362;6.686;2024-02-04T11:41:06;9.80;;;5.50;;
13067;SDS011;6600;51.362;6.686;2024-02-04T11:43:32;10.57;;;5.83;;
13067;SDS011;6600;51.362;6.686;2024-02-04T11:46:02;9.47;;;6.43;;
13067;SDS011;6600;51.362;6.686;2024-02-04T11:48:29;11.53;;;6.40;;
13067;SDS011;6600;51.362;6.686;2024-02-04T11:50:57;8.10;;;5.83;;
13067;SDS011;6600;51.362;6.686;2024-02-04T11:53:23;8.77;;;5.77;;
13067;SDS011;6600;51.362;6.686;2024-02-04T11:55:51;8.27;;;5.63;;
13067;SDS011;6600;51.362;6.686;2024-02-04T11:58:17;8.50;;;5.87;;
13067;SDS011;6600;51.362;6.686;2024-02-04T12:00:43;10.00;;;5.87;;
13067;SDS011;6600;51.362;6.686;2024-02-04T12:03:09;8.43;;;5.53;;
13067;SDS011;6600;51.362;6.686;2024-02-04T12:05:35;9.33;;;5.23;;
13067;SDS011;6600;51.362;6.686;2024-02-04T12:08:01;7.57;;;5.20;;
13067;SDS011;6600;51.362;6.686;2024-02-04T12:10:28;7.47;;;4.90;;
13067;SDS011;6600;51.362;6.686;2024-02-04T12:12:55;7.77;;;5.63;;
13067;SDS011;6600;51.362;6.686;2024-02-04T12:15:21;9.60;;;5.70;;
13067;SDS011;6600;51.362;6.686;2024-02-04T12:17:46;8.43;;;5.77;;
13067;SDS011;6600;51.362;6.686;2024-02-04T12:20:12;10.03;;;5.47;;
13067;SDS011;6600;51.362;6.686;2024-02-04T12:22:37;7.67;;;5.57;;
13067;SDS011;6600;51.362;6.686;2024-02-04T12:25:03;7.10;;;5.20;;
13067;SDS011;6600;51.362;6.686;2024-02-04T12:27:28;6.93;;;5.50;;
13067;SDS011;6600;51.362;6.686;2024-02-04T12:29:54;6.43;;;5.03;;
13067;SDS011;6600;51.362;6.686;2024-02-04T12:32:20;7.03;;;4.97;;
13067;SDS011;6600;51.362;6.686;2024-02-04T12:34:49;7.30;;;4.87;;
13067;SDS011;6600;51.362;6.686;2024-02-04T12:37:19;8.23;;;5.83;;
13067;SDS011;6600;51.362;6.686;2024-02-04T12:39:44;6.77;;;4.53;;
13067;SDS011;6600;51.362;6.686;2024-02-04T12:42:09;8.67;;;4.83;;
13067;SDS011;6600;51.362;6.686;2024-02-04T12:44:35;6.93;;;5.40;;
13067;SDS011;6600;51.362;6.686;2024-02-04T12:47:00;6.57;;;5.00;;
13067;SDS011;6600;51.362;6.686;2024-02-04T12:49:27;7.87;;;4.93;;
13067;SDS011;6600;51.362;6.686;2024-02-04T12:54:20;9.00;;;5.43;;
13067;SDS011;6600;51.362;6.686;2024-02-04T12:56:52;8.73;;;4.87;;
13067;SDS011;6600;51.362;6.686;2024-02-04T13:02:00;6.77;;;4.93;;
13067;SDS011;6600;51.362;6.686;2024-02-04T13:04:33;7.77;;;5.13;;
13067;SDS011;6600;51.362;6.686;2024-02-04T13:07:00;7.17;;;4.93;;
13067;SDS011;6600;51.362;6.686;2024-02-04T13:09:25;6.23;;;4.97;;
13067;SDS011;6600;51.362;6.686;2024-02-04T13:11:50;8.53;;;5.80;;
13067;SDS011;6600;51.362;6.686;2024-02-04T13:14:16;7.63;;;4.90;;
13067;SDS011;6600;51.362;6.686;2024-02-04T13:16:42;8.03;;;4.70;;
13067;SDS011;6600;51.362;6.686;2024-02-04T13:19:07;7.00;;;5.00;;
13067;SDS011;6600;51.362;6.686;2024-02-04T13:21:33;10.60;;;5.83;;
13067;SDS011;6600;51.362;6.686;2024-02-04T13:23:58;7.97;;;6.27;;
13067;SDS011;6600;51.362;6.686;2024-02-04T13:26:24;8.87;;;5.63;;
13067;SDS011;6600;51.362;6.686;2024-02-04T13:28:49;6.53;;;5.77;;
13067;SDS011;6600;51.362;6.686;2024-02-04T13:31:14;8.30;;;6.07;;
13067;SDS011;6600;51.362;6.686;2024-02-04T13:33:40;10.60;;;6.53;;
13067;SDS011;6600;51.362;6.686;2024-02-04T13:36:07;8.57;;;6.03;;
13067;SDS011;6600;51.362;6.686;2024-02-04T13:38:33;10.50;;;6.80;;
13067;SDS011;6600;51.362;6.686;2024-02-04T13:40:58;9.00;;;7.00;;
13067;SDS011;6600;51.362;6.686;2024-02-04T13:43:24;8.07;;;6.20;;
13067;SDS011;6600;51.362;6.686;2024-02-04T13:45:49;7.73;;;6.40;;
13067;SDS011;6600;51.362;6.686;2024-02-04T13:48:14;10.00;;;6.63;;
13067;SDS011;6600;51.362;6.686;2024-02-04T13:50:40;8.73;;;6.80;;
13067;SDS011;6600;51.362;6.686;2024-02-04T13:53:05;9.67;;;6.97;;
13067;SDS011;6600;51.362;6.686;2024-02-04T13:55:30;10.03;;;6.73;;
13067;SDS011;6600;51.362;6.686;2024-02-04T13:57:56;9.57;;;6.47;;
13067;SDS011;6600;51.362;6.686;2024-02-04T14:00:21;10.23;;;6.20;;
13067;SDS011;6600;51.362;6.686;2024-02-04T14:02:46;7.00;;;5.00;;
13067;SDS011;6600;51.362;6.686;2024-02-04T14:05:12;10.40;;;6.97;;
13067;SDS011;6600;51.362;6.686;2024-02-04T14:07:37;10.30;;;6.57;;
13067;SDS011;6600;51.362;6.686;2024-02-04T14:10:03;10.50;;;7.10;;
13067;SDS011;6600;51.362;6.686;2024-02-04T14:12:29;7.13;;;6.10;;
13067;SDS011;6600;51.362;6.686;2024-02-04T14:14:54;8.70;;;6.20;;
13067;SDS011;6600;51.362;6.686;2024-02-04T14:17:20;9.57;;;6.27;;
13067;SDS011;6600;51.362;6.686;2024-02-04T14:19:45;9.73;;;5.90;;
13067;SDS011;6600;51.362;6.686;2024-02-04T14:22:16;9.43;;;6.40;;
13067;SDS011;6600;51.362;6.686;2024-02-04T14:24:42;8.83;;;5.93;;
13067;SDS011;6600;51.362;6.686;2024-02-04T14:27:08;7.53;;;5.57;;
13067;SDS011;6600;51.362;6.686;2024-02-04T14:29:33;7.23;;;5.03;;
13067;SDS011;6600;51.362;6.686;2024-02-04T14:31:59;7.90;;;5.43;;
13067;SDS011;6600;51.362;6.686;2024-02-04T14:34:24;8.03;;;5.57;;
13067;SDS011;6600;51.362;6.686;2024-02-04T14:36:50;7.70;;;5.23;;
13067;SDS011;6600;51.362;6.686;2024-02-04T14:39:15;6.80;;;5.47;;
13067;SDS011;6600;51.362;6.686;2024-02-04T14:41:41;8.27;;;6.00;;
13067;SDS011;6600;51.362;6.686;2024-02-04T14:44:06;8.63;;;5.13;;
13067;SDS011;6600;51.362;6.686;2024-02-04T14:46:32;7.77;;;5.77;;
13067;SDS011;6600;51.362;6.686;2024-02-04T14:49:00;7.50;;;5.57;;
13067;SDS011;6600;51.362;6.686;2024-02-04T14:51:25;7.93;;;5.50;;
13067;SDS011;6600;51.362;6.686;2024-02-04T14:53:50;6.83;;;5.70;;
13067;SDS011;6600;51.362;6.686;2024-02-04T14:56:16;8.33;;;5.80;;
13067;SDS011;6600;51.362;6.686;2024-02-04T14:58:41;7.40;;;4.67;;
13067;SDS011;6600;51.362;6.686;2024-02-04T15:01:07;8.27;;;5.30;;
13067;SDS011;6600;51.362;6.686;2024-02-04T15:03:34;7.50;;;4.67;;